createdAt,value
2018-08-20T00:02:07.102Z,18.80
2018-08-20T00:04:41.108Z,18.80
2018-08-20T00:07:10.011Z,18.80
2018-08-20T00:09:44.948Z,18.70
2018-08-20T00:12:13.778Z,18.60
2018-08-20T00:14:42.629Z,18.50
2018-08-20T00:17:11.494Z,18.40
2018-08-20T00:19:41.168Z,18.40
2018-08-20T00:22:10.482Z,18.30
2018-08-20T00:24:39.250Z,18.30
2018-08-20T00:27:08.191Z,18.30
2018-08-20T00:29:38.510Z,18.20
2018-08-20T00:32:07.504Z,18.20
2018-08-20T00:34:36.390Z,18.20
2018-08-20T00:37:05.258Z,18.20
2018-08-20T00:39:34.216Z,18.20
2018-08-20T00:42:03.096Z,18.20
2018-08-20T00:44:32.666Z,18.20
2018-08-20T00:47:02.494Z,18.30
2018-08-20T00:49:31.402Z,18.30
2018-08-20T00:52:00.278Z,18.20
2018-08-20T00:54:29.216Z,18.20
2018-08-20T00:56:58.074Z,18.10
2018-08-20T00:59:26.922Z,18.00
2018-08-20T01:01:55.833Z,17.90
2018-08-20T01:04:27.037Z,17.90
2018-08-20T01:06:55.942Z,17.90
2018-08-20T01:09:24.799Z,17.90
2018-08-20T01:11:53.680Z,17.90
2018-08-20T01:14:22.672Z,17.80
2018-08-20T01:16:51.508Z,17.80
2018-08-20T01:19:20.926Z,17.80
2018-08-20T01:21:49.983Z,17.70
2018-08-20T01:24:18.849Z,17.70
2018-08-20T01:26:48.225Z,17.70
2018-08-20T01:29:17.157Z,17.70
2018-08-20T01:31:46.151Z,17.80
2018-08-20T01:34:15.805Z,17.80
2018-08-20T01:36:45.262Z,17.90
2018-08-20T01:39:14.146Z,17.90
2018-08-20T01:41:42.954Z,18.10
2018-08-20T01:44:11.874Z,18.20
2018-08-20T01:46:40.750Z,18.20
2018-08-20T01:49:10.233Z,18.20
2018-08-20T01:51:39.594Z,18.20
2018-08-20T01:54:08.365Z,18.30
2018-08-20T01:56:38.171Z,18.40
2018-08-20T01:59:07.063Z,18.40
2018-08-20T02:01:35.983Z,18.50
2018-08-20T02:04:04.879Z,18.60
2018-08-20T02:06:33.873Z,18.50
2018-08-20T02:09:02.790Z,18.40
2018-08-20T02:11:31.605Z,18.30
2018-08-20T02:14:00.554Z,18.30
2018-08-20T02:16:30.095Z,18.10
2018-08-20T02:18:58.878Z,18.00
2018-08-20T02:21:28.385Z,17.90
2018-08-20T02:23:57.290Z,17.80
2018-08-20T02:26:26.284Z,17.70
2018-08-20T02:28:55.869Z,17.70
2018-08-20T02:31:24.739Z,17.60
2018-08-20T02:33:53.749Z,17.60
2018-08-20T02:36:22.559Z,17.60
2018-08-20T02:38:52.048Z,17.60
2018-08-20T02:41:20.973Z,17.50
2018-08-20T02:43:49.913Z,17.50
2018-08-20T02:46:28.605Z,17.50
2018-08-20T02:48:57.407Z,17.60
2018-08-20T02:51:26.210Z,17.60
2018-08-20T02:53:55.070Z,17.60
2018-08-20T02:56:24.001Z,17.60
2018-08-20T02:58:52.957Z,17.60
2018-08-20T03:01:21.834Z,17.60
2018-08-20T03:03:50.609Z,17.50
2018-08-20T03:06:20.563Z,17.40
2018-08-20T03:08:49.482Z,17.40
2018-08-20T03:11:18.323Z,17.30
2018-08-20T03:13:47.417Z,17.20
2018-08-20T03:16:16.290Z,17.20
2018-08-20T03:18:45.067Z,17.20
2018-08-20T03:21:13.870Z,17.10
2018-08-20T03:23:42.759Z,17.10
2018-08-20T03:26:11.636Z,17.20
2018-08-20T03:28:41.054Z,17.10
2018-08-20T03:31:09.858Z,17.20
2018-08-20T03:33:39.068Z,17.20
2018-08-20T03:36:07.974Z,17.20
2018-08-20T03:38:36.964Z,17.20
2018-08-20T03:41:05.964Z,17.30
2018-08-20T03:43:34.841Z,17.30
2018-08-20T03:46:03.835Z,17.20
2018-08-20T03:48:32.702Z,17.30
2018-08-20T03:51:01.586Z,17.30
2018-08-20T03:53:30.490Z,17.30
2018-08-20T03:55:59.374Z,17.20
2018-08-20T03:58:28.793Z,17.20
2018-08-20T04:00:57.770Z,17.10
2018-08-20T04:03:26.661Z,17.00
2018-08-20T04:05:55.490Z,16.90
2018-08-20T04:08:24.966Z,16.80
2018-08-20T04:10:53.828Z,16.70
2018-08-20T04:13:22.680Z,16.70
2018-08-20T04:15:51.545Z,16.60
2018-08-20T04:18:21.055Z,16.60
2018-08-20T04:20:50.355Z,16.50
2018-08-20T04:23:19.825Z,16.50
2018-08-20T04:25:48.717Z,16.50
2018-08-20T04:28:18.234Z,16.50
2018-08-20T04:30:47.196Z,16.40
2018-08-20T04:33:16.072Z,16.30
2018-08-20T04:35:45.545Z,16.30
2018-08-20T04:38:14.452Z,16.20
2018-08-20T04:40:44.045Z,16.10
2018-08-20T04:43:12.994Z,16.10
2018-08-20T04:45:41.774Z,16.10
2018-08-20T04:48:10.680Z,16.20
2018-08-20T04:50:40.341Z,16.20
2018-08-20T04:53:09.172Z,16.40
2018-08-20T04:55:37.946Z,16.40
2018-08-20T04:58:06.838Z,16.50
2018-08-20T05:00:35.732Z,16.60
2018-08-20T05:03:05.587Z,16.60
2018-08-20T05:05:34.326Z,16.70
2018-08-20T05:08:03.217Z,16.70
2018-08-20T05:10:32.696Z,16.80
2018-08-20T05:13:01.550Z,16.90
2018-08-20T05:15:30.470Z,17.00
2018-08-20T05:17:59.461Z,17.10
2018-08-20T05:20:28.323Z,17.30
2018-08-20T05:22:57.175Z,17.40
2018-08-20T05:25:25.995Z,17.50
2018-08-20T05:27:54.905Z,17.70
2018-08-20T05:30:23.876Z,17.70
2018-08-20T05:32:52.678Z,17.80
2018-08-20T05:35:21.692Z,17.80
2018-08-20T05:37:50.492Z,17.90
2018-08-20T05:40:19.408Z,17.90
2018-08-20T05:42:48.135Z,18.00
2018-08-20T05:45:17.132Z,18.00
2018-08-20T05:47:46.138Z,18.00
2018-08-20T05:50:14.687Z,18.00
2018-08-20T05:52:43.515Z,18.10
2018-08-20T05:55:13.313Z,18.10
2018-08-20T05:57:42.341Z,18.10
2018-08-20T06:00:14.090Z,18.20
2018-08-20T06:02:43.024Z,18.20
2018-08-20T06:05:11.955Z,18.30
2018-08-20T06:07:41.852Z,18.40
2018-08-20T06:10:11.034Z,18.50
2018-08-20T06:12:39.878Z,18.50
2018-08-20T06:15:11.529Z,18.60
2018-08-20T06:17:40.746Z,18.70
2018-08-20T06:20:12.599Z,18.70
2018-08-20T06:22:41.928Z,18.80
2018-08-20T06:25:12.097Z,18.90
2018-08-20T06:27:41.473Z,19.00
2018-08-20T06:30:13.755Z,19.20
2018-08-20T06:32:42.850Z,19.40
2018-08-20T06:35:12.207Z,19.50
2018-08-20T06:37:42.033Z,19.60
2018-08-20T06:40:13.007Z,19.70
2018-08-20T06:42:41.958Z,19.90
2018-08-20T06:45:15.441Z,20.00
2018-08-20T06:47:45.208Z,20.20
2018-08-20T06:50:14.764Z,20.30
2018-08-20T06:52:44.600Z,20.30
2018-08-20T06:55:14.941Z,20.40
2018-08-20T06:57:45.127Z,20.60
2018-08-20T07:00:14.713Z,21.00
2018-08-20T07:02:43.624Z,21.10
2018-08-20T07:05:12.463Z,21.30
2018-08-20T07:07:42.394Z,21.30
2018-08-20T07:10:13.389Z,21.40
2018-08-20T07:12:42.547Z,21.30
2018-08-20T07:15:13.770Z,21.40
2018-08-20T07:17:42.571Z,21.40
2018-08-20T07:20:13.045Z,21.40
2018-08-20T07:22:42.030Z,21.60
2018-08-20T07:25:10.990Z,22.20
2018-08-20T07:27:39.833Z,23.40
2018-08-20T07:30:10.798Z,24.20
2018-08-20T07:32:39.729Z,24.30
2018-08-20T07:35:08.586Z,25.80
2018-08-20T07:37:37.543Z,27.60
2018-08-20T07:40:07.560Z,29.90
2018-08-20T07:42:36.544Z,30.30
2018-08-20T07:45:05.522Z,31.30
2018-08-20T07:47:35.156Z,32.10
2018-08-20T07:50:04.087Z,32.90
2018-08-20T07:52:33.134Z,32.30
2018-08-20T07:55:02.054Z,32.90
2018-08-20T07:57:31.885Z,33.40
2018-08-20T08:00:00.834Z,33.30
2018-08-20T08:02:29.763Z,33.90
2018-08-20T08:04:58.539Z,35.70
2018-08-20T08:07:27.869Z,36.10
2018-08-20T08:09:56.837Z,35.90
2018-08-20T08:12:25.745Z,36.50
2018-08-20T08:14:54.561Z,37.40
2018-08-20T08:17:23.563Z,36.70
2018-08-20T08:19:52.469Z,36.30
2018-08-20T08:22:21.177Z,35.90
2018-08-20T08:24:50.013Z,36.50
2018-08-20T08:27:18.919Z,37.20
2018-08-20T08:29:47.767Z,36.80
2018-08-20T08:32:16.762Z,35.50
2018-08-20T08:34:45.616Z,35.90
2018-08-20T08:37:14.726Z,37.50
2018-08-20T08:39:43.753Z,37.50
2018-08-20T08:42:12.576Z,36.60
2018-08-20T08:44:41.506Z,36.90
2018-08-20T08:47:10.351Z,36.80
2018-08-20T08:49:39.257Z,36.80
2018-08-20T08:52:08.126Z,37.90
2018-08-20T08:54:37.131Z,38.50
2018-08-20T08:57:06.257Z,37.50
2018-08-20T08:59:35.218Z,37.00
2018-08-20T09:02:04.061Z,36.90
2018-08-20T09:04:32.858Z,37.60
2018-08-20T09:07:01.849Z,37.00
2018-08-20T09:09:30.682Z,36.30
2018-08-20T09:11:59.571Z,37.30
2018-08-20T09:14:28.458Z,38.30
2018-08-20T09:16:57.301Z,37.30
2018-08-20T09:19:26.267Z,37.60
2018-08-20T09:21:55.265Z,37.90
2018-08-20T09:24:24.618Z,37.80
2018-08-20T09:26:53.429Z,37.50
2018-08-20T09:29:22.253Z,38.20
2018-08-20T09:31:51.487Z,37.80
2018-08-20T09:34:20.281Z,38.60
2018-08-20T09:36:49.850Z,38.00
2018-08-20T09:39:18.476Z,37.70
2018-08-20T09:41:47.252Z,37.70
2018-08-20T09:44:16.070Z,37.50
2018-08-20T09:46:44.853Z,37.20
2018-08-20T09:49:13.771Z,36.30
2018-08-20T09:51:43.141Z,36.10
2018-08-20T09:54:11.867Z,38.10
2018-08-20T09:56:40.706Z,39.30
2018-08-20T09:59:09.556Z,38.10
2018-08-20T10:01:38.344Z,38.70
2018-08-20T10:04:07.198Z,36.90
2018-08-20T10:06:36.007Z,36.10
2018-08-20T10:09:05.987Z,37.50
2018-08-20T10:11:35.488Z,38.20
2018-08-20T10:14:05.021Z,37.90
2018-08-20T10:16:33.790Z,37.90
2018-08-20T10:19:02.646Z,37.70
2018-08-20T10:21:31.451Z,37.50
2018-08-20T10:24:00.203Z,38.30
2018-08-20T10:26:28.872Z,37.80
2018-08-20T10:28:57.670Z,37.20
2018-08-20T10:31:26.410Z,37.10
2018-08-20T10:33:55.391Z,38.10
2018-08-20T10:36:24.882Z,36.90
2018-08-20T10:38:53.746Z,36.80
2018-08-20T10:41:22.607Z,35.90
2018-08-20T10:43:51.683Z,34.90
2018-08-20T10:46:25.456Z,34.20
2018-08-20T10:48:55.498Z,34.40
2018-08-20T10:51:24.446Z,35.00
2018-08-20T10:53:53.469Z,35.50
2018-08-20T10:56:22.555Z,35.80
2018-08-20T10:58:51.434Z,35.80
2018-08-20T11:01:20.533Z,36.30
2018-08-20T11:03:54.623Z,36.70
2018-08-20T11:06:23.669Z,37.60
2018-08-20T11:08:52.786Z,38.00
2018-08-20T11:11:21.715Z,38.30
2018-08-20T11:13:50.556Z,36.80
2018-08-20T11:16:19.479Z,36.30
2018-08-20T11:18:49.361Z,36.30
2018-08-20T11:21:18.010Z,36.40
2018-08-20T11:23:46.797Z,37.90
2018-08-20T11:26:15.569Z,38.80
2018-08-20T11:28:44.436Z,39.00
2018-08-20T11:31:13.201Z,38.40
2018-08-20T11:33:41.939Z,37.60
2018-08-20T11:36:11.362Z,38.60
2018-08-20T11:38:40.212Z,39.00
2018-08-20T11:41:09.119Z,37.80
2018-08-20T11:43:38.070Z,35.70
2018-08-20T11:46:07.324Z,36.40
2018-08-20T11:48:36.282Z,37.60
2018-08-20T11:51:05.165Z,39.00
2018-08-20T11:53:34.144Z,38.20
2018-08-20T11:56:03.134Z,38.00
2018-08-20T11:58:32.394Z,38.80
2018-08-20T12:01:01.613Z,38.40
2018-08-20T12:03:31.116Z,39.20
2018-08-20T12:05:59.889Z,39.20
2018-08-20T12:08:28.810Z,39.40
2018-08-20T12:10:57.676Z,39.80
2018-08-20T12:13:27.265Z,39.90
2018-08-20T12:15:56.787Z,38.70
2018-08-20T12:18:25.629Z,37.50
2018-08-20T12:20:54.357Z,36.90
2018-08-20T12:23:25.265Z,34.90
2018-08-20T12:25:55.253Z,34.00
2018-08-20T12:28:24.096Z,34.50
2018-08-20T12:30:53.297Z,35.70
2018-08-20T12:33:22.076Z,35.30
2018-08-20T12:35:50.946Z,34.40
2018-08-20T12:38:19.705Z,34.30
2018-08-20T12:40:48.695Z,34.90
2018-08-20T12:43:17.486Z,35.80
2018-08-20T12:45:46.271Z,37.10
2018-08-20T12:48:15.210Z,37.20
2018-08-20T12:50:44.708Z,37.70
2018-08-20T12:53:13.482Z,37.20
2018-08-20T12:55:42.841Z,37.90
2018-08-20T12:58:11.609Z,38.60
2018-08-20T13:00:40.374Z,39.30
2018-08-20T13:03:09.196Z,39.50
2018-08-20T13:05:38.115Z,38.40
2018-08-20T13:08:06.866Z,37.30
2018-08-20T13:10:35.700Z,37.40
2018-08-20T13:13:04.488Z,37.10
2018-08-20T13:15:33.494Z,35.70
2018-08-20T13:18:02.365Z,35.30
2018-08-20T13:20:31.263Z,36.60
2018-08-20T13:23:01.298Z,37.10
2018-08-20T13:25:30.364Z,36.60
2018-08-20T13:27:59.827Z,36.70
2018-08-20T13:30:28.774Z,36.30
2018-08-20T13:32:57.530Z,36.30
2018-08-20T13:35:26.449Z,36.80
2018-08-20T13:37:55.421Z,37.80
2018-08-20T13:40:24.297Z,37.70
2018-08-20T13:42:53.214Z,36.80
2018-08-20T13:45:22.012Z,36.50
2018-08-20T13:47:50.889Z,37.10
2018-08-20T13:50:20.068Z,37.50
2018-08-20T13:52:48.874Z,37.30
2018-08-20T13:55:34.993Z,37.80
2018-08-20T13:58:03.853Z,37.30
2018-08-20T14:00:41.002Z,37.60
2018-08-20T14:03:10.282Z,38.10
2018-08-20T14:05:39.341Z,38.40
2018-08-20T14:08:08.525Z,37.30
2018-08-20T14:10:37.329Z,36.80
2018-08-20T14:13:07.302Z,36.20
2018-08-20T14:15:49.963Z,35.80
2018-08-20T14:18:21.036Z,35.20
2018-08-20T14:21:23.944Z,35.20
2018-08-20T14:23:52.916Z,36.00
2018-08-20T14:26:21.880Z,35.90
2018-08-20T14:28:50.702Z,36.30
2018-08-20T14:31:20.275Z,36.50
2018-08-20T14:33:49.162Z,35.50
2018-08-20T14:36:18.261Z,36.20
2018-08-20T14:38:47.103Z,36.80
2018-08-20T14:41:16.085Z,36.40
2018-08-20T14:43:45.020Z,35.80
2018-08-20T14:46:18.926Z,35.40
2018-08-20T14:48:47.781Z,36.10
2018-08-20T14:51:16.829Z,36.50
2018-08-20T14:53:45.758Z,35.60
2018-08-20T14:59:23.012Z,35.30
2018-08-20T15:02:01.792Z,35.30
2018-08-20T15:04:30.676Z,35.80
2018-08-20T15:07:03.256Z,35.90
2018-08-20T15:09:32.555Z,36.30
2018-08-20T15:12:01.489Z,36.20
2018-08-20T15:14:30.223Z,36.60
2018-08-20T15:16:59.114Z,37.10
2018-08-20T15:19:30.377Z,36.50
2018-08-20T15:21:59.229Z,35.40
2018-08-20T15:24:28.715Z,34.30
2018-08-20T15:26:57.658Z,33.50
2018-08-20T15:29:26.859Z,33.00
2018-08-20T15:31:56.136Z,32.70
2018-08-20T15:34:25.087Z,32.50
2018-08-20T15:36:54.075Z,32.50
2018-08-20T15:39:23.127Z,32.80
2018-08-20T15:41:52.819Z,33.00
2018-08-20T15:44:21.614Z,32.80
2018-08-20T15:46:51.181Z,32.30
2018-08-20T15:49:21.286Z,31.80
2018-08-20T15:51:50.182Z,31.30
2018-08-20T15:54:19.087Z,31.30
2018-08-20T15:56:47.988Z,31.60
2018-08-20T15:59:16.910Z,32.10
2018-08-20T16:01:45.910Z,32.60
2018-08-20T16:04:15.227Z,33.00
2018-08-20T16:06:44.141Z,32.80
2018-08-20T16:09:13.183Z,32.20
2018-08-20T16:11:42.091Z,31.90
2018-08-20T16:14:10.875Z,31.80
2018-08-20T16:16:39.739Z,32.00
2018-08-20T16:19:08.578Z,32.30
2018-08-20T16:21:37.547Z,31.80
2018-08-20T16:24:06.870Z,31.20
2018-08-20T16:26:35.787Z,31.00
2018-08-20T16:29:04.683Z,30.60
2018-08-20T16:31:33.664Z,30.10
2018-08-20T16:34:02.675Z,30.30
2018-08-20T16:36:31.475Z,30.70
2018-08-20T16:39:00.378Z,30.90
2018-08-20T16:41:29.216Z,30.90
2018-08-20T16:43:58.597Z,31.00
2018-08-20T16:46:27.817Z,30.90
2018-08-20T16:48:57.150Z,30.80
2018-08-20T16:51:26.092Z,30.80
2018-08-20T16:53:55.499Z,30.40
2018-08-20T16:56:24.315Z,29.90
2018-08-20T16:58:53.324Z,29.40
2018-08-20T17:01:22.301Z,28.90
2018-08-20T17:03:51.160Z,28.70
2018-08-20T17:06:19.969Z,28.50
2018-08-20T17:08:54.137Z,28.40
2018-08-20T17:11:23.590Z,28.30
2018-08-20T17:13:53.444Z,28.10
2018-08-20T17:16:22.427Z,27.90
2018-08-20T17:18:51.354Z,27.80
2018-08-20T17:21:20.399Z,27.60
2018-08-20T17:23:49.403Z,27.60
2018-08-20T17:26:18.475Z,27.40
2018-08-20T17:28:47.541Z,27.30
2018-08-20T17:31:24.194Z,27.20
2018-08-20T17:34:01.205Z,27.00
2018-08-20T17:36:30.716Z,26.90
2018-08-20T17:39:04.737Z,26.70
2018-08-20T17:41:33.775Z,26.60
2018-08-20T17:44:02.782Z,26.50
2018-08-20T17:46:31.882Z,26.30
2018-08-20T17:49:00.891Z,26.20
2018-08-20T17:51:29.812Z,26.10
2018-08-20T17:53:59.729Z,26.00
2018-08-20T17:56:28.798Z,25.90
2018-08-20T17:59:02.894Z,25.80
2018-08-20T18:01:38.281Z,25.70
2018-08-20T18:04:07.648Z,25.60
2018-08-20T18:06:48.011Z,25.50
2018-08-20T18:12:09.864Z,25.20
2018-08-20T18:14:38.853Z,25.10
2018-08-20T18:17:07.583Z,25.00
2018-08-20T18:19:36.447Z,24.80
2018-08-20T18:22:05.344Z,24.80
2018-08-20T18:24:34.283Z,24.60
2018-08-20T18:27:03.289Z,24.50
2018-08-20T18:29:32.342Z,24.50
2018-08-20T18:32:02.910Z,24.40
2018-08-20T18:34:31.791Z,24.20
2018-08-20T18:37:04.339Z,24.10
2018-08-20T18:39:33.242Z,24.00
2018-08-20T18:42:05.096Z,23.90
2018-08-20T18:44:56.916Z,23.80
2018-08-20T18:47:25.833Z,23.70
2018-08-20T18:49:58.165Z,23.50
2018-08-20T18:52:29.687Z,23.30
2018-08-20T18:54:59.457Z,23.20
2018-08-20T18:57:30.804Z,23.10
2018-08-20T19:00:02.217Z,22.90
2018-08-20T19:02:42.928Z,22.70
2018-08-20T19:05:13.570Z,22.60
2018-08-20T19:10:51.514Z,22.30
2018-08-20T19:13:20.427Z,22.10
2018-08-20T19:15:59.876Z,22.00
2018-08-20T19:18:35.364Z,21.80
2018-08-20T19:21:09.508Z,21.80
2018-08-20T19:23:38.519Z,21.70
2018-08-20T19:26:07.452Z,21.60
2018-08-20T19:28:36.501Z,21.50
2018-08-20T19:31:06.098Z,21.40
2018-08-20T19:33:35.152Z,21.40
2018-08-20T19:36:04.363Z,21.30
2018-08-20T19:38:33.974Z,21.30
2018-08-20T19:41:08.209Z,21.20
2018-08-20T19:43:52.255Z,21.20
2018-08-20T19:46:31.286Z,21.10
2018-08-20T19:49:08.510Z,21.10
2018-08-20T19:51:39.178Z,21.00
2018-08-20T19:54:09.302Z,21.00
2018-08-20T19:56:38.596Z,21.10
2018-08-20T19:59:07.837Z,21.10
2018-08-20T20:01:36.888Z,21.20
2018-08-20T20:04:05.932Z,21.10
2018-08-20T20:06:34.889Z,21.10
2018-08-20T20:09:09.518Z,21.00
2018-08-20T20:11:42.639Z,20.90
2018-08-20T20:14:11.837Z,20.80
2018-08-20T20:16:45.833Z,20.60
2018-08-20T20:19:14.708Z,20.40
2018-08-20T20:21:43.967Z,20.30
2018-08-20T20:24:13.424Z,20.20
2018-08-20T20:26:42.267Z,20.20
2018-08-20T20:29:11.756Z,20.20
2018-08-20T20:31:41.631Z,20.10
2018-08-20T20:34:10.734Z,20.10
2018-08-20T20:36:39.661Z,20.20
2018-08-20T20:39:10.277Z,20.20
2018-08-20T20:41:39.277Z,20.20
2018-08-20T20:44:08.843Z,20.10
2018-08-20T20:46:39.403Z,20.10
2018-08-20T20:49:08.365Z,20.10
2018-08-20T20:51:37.250Z,20.10
2018-08-20T20:54:06.269Z,20.00
2018-08-20T20:56:35.488Z,20.00
2018-08-20T20:59:05.130Z,20.10
2018-08-20T21:01:33.975Z,20.10
2018-08-20T21:04:05.346Z,20.10
2018-08-20T21:06:38.297Z,20.00
2018-08-20T21:09:12.936Z,19.90
2018-08-20T21:11:42.552Z,19.80
2018-08-20T21:14:12.480Z,20.00
2018-08-20T21:16:41.620Z,19.90
2018-08-20T21:19:10.574Z,19.80
2018-08-20T21:21:39.432Z,19.70
2018-08-20T21:24:08.757Z,19.70
2018-08-20T21:26:37.816Z,19.60
2018-08-20T21:29:06.662Z,19.50
2018-08-20T21:31:42.550Z,19.50
2018-08-20T21:34:11.572Z,19.40
2018-08-20T21:36:40.502Z,19.40
2018-08-20T21:39:10.031Z,19.40
2018-08-20T21:41:39.044Z,19.40
2018-08-20T21:44:08.599Z,19.30
2018-08-20T21:46:37.558Z,19.30
2018-08-20T21:49:07.066Z,19.30
2018-08-20T21:51:42.372Z,19.40
2018-08-20T21:54:11.282Z,19.40
2018-08-20T21:56:51.154Z,19.50
2018-08-20T21:59:20.768Z,19.50
2018-08-20T22:01:49.712Z,19.50
2018-08-20T22:04:19.896Z,19.50
2018-08-20T22:06:49.380Z,19.60
2018-08-20T22:09:18.339Z,19.50
2018-08-20T22:11:47.405Z,19.40
2018-08-20T22:14:16.313Z,19.30
2018-08-20T22:16:45.334Z,19.30
2018-08-20T22:19:14.235Z,19.30
2018-08-20T22:24:36.404Z,19.30
2018-08-20T22:27:06.397Z,19.30
2018-08-20T22:29:40.477Z,19.20
2018-08-20T22:32:10.161Z,19.20
2018-08-20T22:34:39.209Z,19.10
2018-08-20T22:37:08.954Z,19.10
2018-08-20T22:39:37.894Z,19.00
2018-08-20T22:42:06.761Z,18.90
2018-08-20T22:44:35.739Z,18.80
2018-08-20T22:47:05.641Z,18.80
2018-08-20T22:49:34.536Z,18.80
2018-08-20T22:52:03.491Z,18.90
2018-08-20T22:54:32.391Z,18.90
2018-08-20T22:57:01.443Z,18.80
2018-08-20T22:59:30.313Z,18.80
2018-08-20T23:01:59.126Z,18.80
2018-08-20T23:04:28.803Z,18.80
2018-08-20T23:07:00.744Z,18.70
2018-08-20T23:09:32.587Z,18.60
2018-08-20T23:12:02.446Z,18.60
2018-08-20T23:14:32.111Z,18.60
2018-08-20T23:17:00.984Z,18.60
2018-08-20T23:19:31.486Z,18.50
2018-08-20T23:22:00.358Z,18.40
2018-08-20T23:24:29.105Z,18.30
2018-08-20T23:26:58.066Z,18.40
2018-08-20T23:29:26.981Z,18.30
2018-08-20T23:31:55.975Z,18.20
2018-08-20T23:34:24.977Z,18.10
2018-08-20T23:36:53.741Z,18.10
2018-08-20T23:39:22.677Z,18.10
2018-08-20T23:41:51.669Z,18.20
2018-08-20T23:44:21.230Z,18.20
2018-08-20T23:46:51.130Z,18.30
2018-08-20T23:49:20.363Z,18.30
2018-08-20T23:51:49.279Z,18.20
2018-08-20T23:54:18.085Z,18.10
2018-08-20T23:56:47.034Z,18.00
2018-08-20T23:59:16.524Z,17.90
